createdAt,value
2023-04-04T00:00:21.553Z,-2.83
2023-04-04T00:02:49.837Z,-2.82
2023-04-04T00:05:16.462Z,-2.87
2023-04-04T00:07:46.367Z,-2.87
2023-04-04T00:10:12.963Z,-2.85
2023-04-04T00:12:39.555Z,-2.86
2023-04-04T00:15:07.094Z,-2.93
2023-04-04T00:17:33.549Z,-2.96
2023-04-04T00:20:00.218Z,-3.01
2023-04-04T00:22:27.011Z,-3.03
2023-04-04T00:24:53.502Z,-3.03
2023-04-04T00:27:19.959Z,-2.99
2023-04-04T00:29:46.796Z,-3.02
2023-04-04T00:32:13.345Z,-3.02
2023-04-04T00:34:39.868Z,-2.99
2023-04-04T00:37:07.402Z,-3.00
2023-04-04T00:39:34.303Z,-3.03
2023-04-04T00:42:00.986Z,-3.06
2023-04-04T00:44:27.412Z,-3.05
2023-04-04T00:46:53.948Z,-3.02
2023-04-04T00:49:20.658Z,-3.19
2023-04-04T00:51:47.231Z,-3.17
2023-04-04T00:54:13.714Z,-3.18
2023-04-04T00:56:40.668Z,-3.23
2023-04-04T00:59:07.786Z,-3.28
2023-04-04T01:01:35.775Z,-3.21
2023-04-04T01:04:03.276Z,-3.20
2023-04-04T01:07:25.865Z,-3.17
2023-04-04T01:09:52.602Z,-3.24
2023-04-04T01:12:19.312Z,-3.20
2023-04-04T01:14:45.830Z,-3.21
2023-04-04T01:17:12.642Z,-3.22
2023-04-04T01:19:53.660Z,-3.23
2023-04-04T01:22:21.586Z,-3.25
2023-04-04T01:24:49.676Z,-3.29
2023-04-04T01:27:16.293Z,-3.29
2023-04-04T01:29:42.751Z,-3.36
2023-04-04T01:32:21.032Z,-3.31
2023-04-04T01:35:04.684Z,-3.36
2023-04-04T01:37:39.185Z,-3.41
2023-04-04T01:40:37.681Z,-3.45
2023-04-04T01:43:04.519Z,-3.49
2023-04-04T01:45:32.933Z,-3.49
2023-04-04T01:47:59.492Z,-3.45
2023-04-04T01:50:26.557Z,-3.47
2023-04-04T01:52:53.134Z,-3.47
2023-04-04T01:55:19.629Z,-3.48
2023-04-04T01:57:46.201Z,-3.46
2023-04-04T02:00:13.075Z,-3.44
2023-04-04T02:02:39.579Z,-3.44
2023-04-04T02:05:06.298Z,-3.45
2023-04-04T02:07:32.758Z,-3.48
2023-04-04T02:09:59.668Z,-3.48
2023-04-04T02:12:26.377Z,-3.48
2023-04-04T02:14:53.584Z,-3.50
2023-04-04T02:17:20.282Z,-3.53
2023-04-04T02:19:46.872Z,-3.56
2023-04-04T02:22:13.361Z,-3.54
2023-04-04T02:24:39.831Z,-3.51
2023-04-04T02:27:06.660Z,-3.54
2023-04-04T02:29:33.207Z,-3.51
2023-04-04T02:31:59.730Z,-3.51
2023-04-04T02:34:26.496Z,-3.48
2023-04-04T02:36:53.269Z,-3.48
2023-04-04T02:39:19.934Z,-3.50
2023-04-04T02:41:47.131Z,-3.49
2023-04-04T02:44:13.574Z,-3.46
2023-04-04T02:46:40.098Z,-3.51
2023-04-04T02:49:06.657Z,-3.48
2023-04-04T02:51:33.705Z,-3.54
2023-04-04T02:54:00.892Z,-3.48
2023-04-04T02:56:27.473Z,-3.55
2023-04-04T02:58:54.467Z,-3.52
2023-04-04T03:01:21.177Z,-3.53
2023-04-04T03:03:47.862Z,-3.55
2023-04-04T03:06:15.529Z,-3.57
2023-04-04T03:08:42.292Z,-3.52
2023-04-04T03:11:08.858Z,-3.59
2023-04-04T03:13:35.725Z,-3.59
2023-04-04T03:16:04.532Z,-3.65
2023-04-04T03:18:31.553Z,-3.66
2023-04-04T03:20:58.460Z,-3.68
2023-04-04T03:23:24.977Z,-3.60
2023-04-04T03:25:51.679Z,-3.67
2023-04-04T03:28:18.192Z,-3.63
2023-04-04T03:30:44.699Z,-3.72
2023-04-04T03:33:11.347Z,-3.66
2023-04-04T03:35:39.722Z,-3.70
2023-04-04T03:38:07.104Z,-3.72
2023-04-04T03:40:33.745Z,-3.77
2023-04-04T03:43:02.340Z,-3.68
2023-04-04T03:45:32.696Z,-3.73
2023-04-04T03:47:59.207Z,-3.75
2023-04-04T03:50:26.004Z,-3.75
2023-04-04T03:52:52.543Z,-3.77
2023-04-04T03:55:19.182Z,-3.76
2023-04-04T03:57:45.676Z,-3.75
2023-04-04T04:00:12.552Z,-3.75
2023-04-04T04:02:39.469Z,-3.78
2023-04-04T04:05:06.221Z,-3.79
2023-04-04T04:07:32.757Z,-3.82
2023-04-04T04:09:59.339Z,-3.88
2023-04-04T04:12:26.248Z,-3.84
2023-04-04T04:14:52.991Z,-3.92
2023-04-04T04:17:19.779Z,-3.93
2023-04-04T04:19:46.726Z,-3.91
2023-04-04T04:22:13.183Z,-3.87
2023-04-04T04:24:39.640Z,-3.92
2023-04-04T04:27:07.020Z,-3.96
2023-04-04T04:29:33.522Z,-4.00
2023-04-04T04:31:59.989Z,-4.02
2023-04-04T04:34:26.418Z,-3.96
2023-04-04T04:36:53.834Z,-3.91
2023-04-04T04:39:20.568Z,-3.86
2023-04-04T04:41:47.080Z,-3.93
2023-04-04T04:44:13.521Z,-3.92
2023-04-04T04:46:40.035Z,-3.91
2023-04-04T04:49:06.715Z,-3.92
2023-04-04T04:51:33.324Z,-3.97
2023-04-04T04:53:59.799Z,-3.89
2023-04-04T04:56:26.248Z,-3.93
2023-04-04T04:58:52.800Z,-3.86
2023-04-04T05:01:19.342Z,-3.89
2023-04-04T05:03:45.790Z,-3.93
2023-04-04T05:06:12.486Z,-3.87
2023-04-04T05:08:38.929Z,-3.94
2023-04-04T05:11:05.736Z,-3.85
2023-04-04T05:13:32.320Z,-3.88
2023-04-04T05:15:59.114Z,-3.86
2023-04-04T05:18:27.347Z,-3.76
2023-04-04T05:20:56.857Z,-3.85
2023-04-04T05:23:23.607Z,-3.82
2023-04-04T05:25:51.441Z,-3.82
2023-04-04T05:28:18.058Z,-3.70
2023-04-04T05:30:44.732Z,-3.71
2023-04-04T05:33:11.384Z,-3.66
2023-04-04T05:35:38.076Z,-3.62
2023-04-04T05:38:04.555Z,-3.57
2023-04-04T05:40:31.068Z,-3.56
2023-04-04T05:42:58.985Z,-3.55
2023-04-04T05:45:26.014Z,-3.46
2023-04-04T05:47:52.773Z,-3.40
2023-04-04T05:50:19.248Z,-3.38
2023-04-04T05:52:46.942Z,-3.38
2023-04-04T05:55:13.527Z,-3.25
2023-04-04T05:57:48.384Z,-3.15
2023-04-04T06:00:15.694Z,-3.07
2023-04-04T06:02:42.367Z,-2.96
2023-04-04T06:05:09.305Z,-2.87
2023-04-04T06:07:35.946Z,-2.83
2023-04-04T06:10:03.007Z,-2.56
2023-04-04T06:12:29.489Z,-2.37
2023-04-04T06:14:55.983Z,-2.26
2023-04-04T06:17:22.513Z,-1.87
2023-04-04T06:19:48.985Z,-1.76
2023-04-04T06:22:17.592Z,-1.57
2023-04-04T06:24:44.289Z,-1.28
2023-04-04T06:27:10.733Z,-1.12
2023-04-04T06:29:37.328Z,-0.93
2023-04-04T06:32:05.363Z,-0.78
2023-04-04T06:34:32.064Z,-0.72
2023-04-04T06:36:58.488Z,-0.58
2023-04-04T06:39:25.007Z,-0.29
2023-04-04T06:41:51.699Z,-0.52
2023-04-04T06:44:18.139Z,-0.28
2023-04-04T06:46:44.779Z,0.01
2023-04-04T06:49:11.566Z,0.53
2023-04-04T06:51:39.868Z,1.01
2023-04-04T06:54:06.400Z,0.73
2023-04-04T06:56:32.895Z,1.15
2023-04-04T06:58:59.358Z,1.15
2023-04-04T07:01:26.205Z,0.77
2023-04-04T07:03:54.314Z,0.42
2023-04-04T07:06:25.988Z,0.87
2023-04-04T07:08:52.953Z,1.20
2023-04-04T07:11:19.475Z,1.49
2023-04-04T07:13:45.950Z,1.46
2023-04-04T07:16:12.394Z,1.41
2023-04-04T07:18:38.927Z,1.89
2023-04-04T07:21:05.976Z,2.07
2023-04-04T07:23:32.467Z,2.26
2023-04-04T07:25:59.032Z,2.48
2023-04-04T07:28:25.580Z,2.80
2023-04-04T07:30:51.967Z,3.47
2023-04-04T07:33:18.404Z,3.38
2023-04-04T07:35:44.964Z,3.69
2023-04-04T07:38:11.423Z,3.76
2023-04-04T07:40:38.183Z,3.93
2023-04-04T07:43:04.873Z,3.93
2023-04-04T07:45:31.639Z,3.85
2023-04-04T07:47:58.215Z,3.34
2023-04-04T07:50:24.760Z,3.86
2023-04-04T07:52:58.551Z,3.91
2023-04-04T07:55:25.917Z,3.15
2023-04-04T07:57:53.166Z,2.81
2023-04-04T08:00:21.880Z,2.97
2023-04-04T08:02:55.574Z,3.51
2023-04-04T08:05:22.332Z,3.86
2023-04-04T08:07:48.773Z,3.26
2023-04-04T08:10:17.716Z,3.13
2023-04-04T08:12:47.970Z,3.49
2023-04-04T08:15:14.573Z,3.69
2023-04-04T08:17:43.235Z,3.36
2023-04-04T08:20:10.558Z,3.86
2023-04-04T08:22:37.128Z,4.05
2023-04-04T08:25:04.547Z,4.26
2023-04-04T08:27:30.980Z,4.44
2023-04-04T08:29:57.403Z,4.64
2023-04-04T08:32:24.054Z,5.05
2023-04-04T08:34:50.847Z,5.46
2023-04-04T08:37:17.576Z,5.06
2023-04-04T08:39:44.288Z,4.96
2023-04-04T08:42:11.899Z,5.23
2023-04-04T08:44:41.925Z,5.67
2023-04-04T08:47:10.397Z,5.90
2023-04-04T08:49:43.250Z,5.98
2023-04-04T08:52:12.383Z,6.11
2023-04-04T08:54:40.628Z,6.28
2023-04-04T08:57:08.313Z,5.70
2023-04-04T08:59:35.263Z,6.27
2023-04-04T09:02:11.792Z,6.18
2023-04-04T09:04:39.956Z,6.42
2023-04-04T09:07:07.038Z,6.39
2023-04-04T09:09:34.296Z,5.97
2023-04-04T09:12:02.093Z,5.26
2023-04-04T09:14:30.357Z,5.36
2023-04-04T09:16:57.400Z,6.07
2023-04-04T09:19:26.201Z,6.57
2023-04-04T09:21:53.564Z,7.22
2023-04-04T09:24:22.568Z,7.15
2023-04-04T09:26:53.541Z,7.39
2023-04-04T09:29:22.791Z,7.04
2023-04-04T09:31:51.236Z,6.07
2023-04-04T09:34:19.480Z,5.15
2023-04-04T09:36:46.842Z,5.49
2023-04-04T09:39:16.503Z,5.44
2023-04-04T09:41:45.441Z,4.76
2023-04-04T09:44:13.055Z,4.39
2023-04-04T09:46:40.667Z,4.21
2023-04-04T09:49:13.136Z,4.83
2023-04-04T09:51:41.914Z,5.17
2023-04-04T09:54:18.691Z,5.99
2023-04-04T09:56:49.699Z,6.21
2023-04-04T09:59:18.111Z,7.12
2023-04-04T10:01:45.736Z,7.93
2023-04-04T10:04:13.643Z,6.46
2023-04-04T10:06:43.347Z,4.91
2023-04-04T10:09:09.818Z,5.31
2023-04-04T10:11:36.696Z,5.92
2023-04-04T10:14:06.826Z,4.83
2023-04-04T10:16:37.068Z,4.56
2023-04-04T10:19:05.453Z,3.98
2023-04-04T10:21:32.583Z,3.69
2023-04-04T10:24:02.054Z,3.43
2023-04-04T10:26:28.637Z,3.28
2023-04-04T10:28:56.203Z,3.49
2023-04-04T10:31:24.946Z,3.85
2023-04-04T10:34:07.284Z,4.98
2023-04-04T10:36:44.782Z,5.39
2023-04-04T10:39:44.885Z,5.02
2023-04-04T10:42:15.224Z,5.63
2023-04-04T10:44:42.547Z,5.95
2023-04-04T10:47:23.220Z,5.82
2023-04-04T10:49:51.859Z,4.99
2023-04-04T10:52:23.610Z,4.46
2023-04-04T10:54:50.906Z,5.60
2023-04-04T10:57:17.626Z,6.04
2023-04-04T10:59:58.044Z,5.06
2023-04-04T11:02:52.141Z,5.60
2023-04-04T11:05:24.422Z,5.59
2023-04-04T11:08:08.595Z,6.15
2023-04-04T11:10:37.705Z,6.43
2023-04-04T11:13:14.150Z,6.76
2023-04-04T11:16:00.494Z,7.26
2023-04-04T11:18:39.245Z,7.31
2023-04-04T11:21:24.974Z,7.30
2023-04-04T11:23:54.416Z,7.16
2023-04-04T11:26:27.656Z,6.50
2023-04-04T11:29:04.766Z,5.72
2023-04-04T11:31:45.316Z,5.30
2023-04-04T11:34:13.116Z,5.19
2023-04-04T11:36:43.865Z,4.86
2023-04-04T11:39:14.793Z,4.53
2023-04-04T11:41:47.764Z,5.13
2023-04-04T11:44:17.740Z,7.48
2023-04-04T11:46:45.307Z,8.13
2023-04-04T11:49:12.037Z,9.04
2023-04-04T11:51:42.310Z,8.83
2023-04-04T11:54:16.662Z,9.66
2023-04-04T11:56:44.958Z,10.68
2023-04-04T11:59:12.948Z,9.02
2023-04-04T12:01:40.652Z,7.04
2023-04-04T12:04:07.189Z,6.41
2023-04-04T12:06:35.550Z,5.50
2023-04-04T12:09:05.719Z,5.09
2023-04-04T12:11:37.176Z,4.89
2023-04-04T12:14:03.826Z,5.10
2023-04-04T12:16:30.795Z,5.57
2023-04-04T12:19:02.200Z,5.14
2023-04-04T12:21:33.176Z,5.05
2023-04-04T12:23:59.894Z,5.16
2023-04-04T12:26:29.764Z,5.10
2023-04-04T12:28:59.833Z,5.22
2023-04-04T12:31:27.647Z,5.18
2023-04-04T12:33:55.105Z,4.90
2023-04-04T12:36:25.475Z,4.76
2023-04-04T12:39:00.978Z,5.29
2023-04-04T12:41:27.869Z,6.61
2023-04-04T12:44:02.751Z,7.56
2023-04-04T12:46:36.345Z,7.62
2023-04-04T12:49:03.888Z,7.65
2023-04-04T12:51:32.731Z,6.94
2023-04-04T12:53:59.785Z,7.26
2023-04-04T12:56:27.721Z,7.13
2023-04-04T12:58:54.701Z,6.65
2023-04-04T13:01:21.554Z,6.59
2023-04-04T13:03:48.183Z,5.72
2023-04-04T13:06:17.622Z,5.99
2023-04-04T13:08:53.562Z,5.81
2023-04-04T13:11:20.628Z,5.93
2023-04-04T13:16:38.343Z,5.53
2023-04-04T13:19:05.253Z,5.21
2023-04-04T13:21:32.473Z,5.13
2023-04-04T13:23:58.955Z,4.87
2023-04-04T13:26:26.186Z,4.51
2023-04-04T13:28:52.968Z,4.64
2023-04-04T13:31:19.738Z,4.62
2023-04-04T13:33:46.447Z,4.34
2023-04-04T13:36:14.100Z,4.17
2023-04-04T13:38:40.945Z,4.34
2023-04-04T13:41:07.506Z,4.20
2023-04-04T13:43:34.036Z,4.18
2023-04-04T13:46:00.746Z,4.20
2023-04-04T13:48:27.581Z,4.19
2023-04-04T13:50:55.334Z,4.38
2023-04-04T13:53:22.166Z,4.34
2023-04-04T13:58:20.170Z,4.38
2023-04-04T14:00:48.388Z,4.60
2023-04-04T14:03:16.686Z,4.41
2023-04-04T14:05:43.455Z,4.31
2023-04-04T14:08:10.314Z,4.26
2023-04-04T14:10:36.810Z,4.49
2023-04-04T14:13:03.441Z,4.17
2023-04-04T14:15:29.926Z,4.31
2023-04-04T14:17:56.429Z,4.23
2023-04-04T14:20:23.102Z,4.36
2023-04-04T14:22:49.556Z,4.23
2023-04-04T14:25:16.438Z,4.18
2023-04-04T14:27:42.884Z,4.19
2023-04-04T14:30:09.709Z,3.94
2023-04-04T14:32:36.132Z,4.01
2023-04-04T14:35:02.699Z,4.21
2023-04-04T14:37:29.221Z,4.08
2023-04-04T14:39:56.207Z,4.24
2023-04-04T14:42:22.885Z,4.29
2023-04-04T14:44:49.562Z,4.26
2023-04-04T14:47:16.116Z,4.30
2023-04-04T14:49:43.472Z,4.16
2023-04-04T14:52:10.045Z,3.98
2023-04-04T14:54:36.755Z,4.13
2023-04-04T14:57:03.434Z,4.12
2023-04-04T14:59:30.053Z,4.21
2023-04-04T15:01:57.227Z,4.33
2023-04-04T15:04:23.891Z,4.36
2023-04-04T15:06:50.617Z,4.25
2023-04-04T15:09:17.293Z,4.14
2023-04-04T15:11:43.868Z,4.04
2023-04-04T15:14:10.327Z,4.08
2023-04-04T15:16:36.930Z,4.03
2023-04-04T15:19:03.635Z,4.02
2023-04-04T15:21:30.111Z,4.04
2023-04-04T15:23:56.662Z,3.89
2023-04-04T15:26:23.297Z,3.85
2023-04-04T15:28:49.867Z,3.97
2023-04-04T15:31:16.977Z,4.05
2023-04-04T15:33:43.532Z,4.06
2023-04-04T15:36:10.014Z,4.18
2023-04-04T15:38:36.541Z,4.16
2023-04-04T15:41:06.006Z,4.28
2023-04-04T15:43:32.509Z,4.13
2023-04-04T15:45:58.989Z,4.20
2023-04-04T15:48:25.778Z,4.08
2023-04-04T15:50:52.262Z,4.03
2023-04-04T15:53:18.721Z,4.05
2023-04-04T15:55:45.191Z,4.09
2023-04-04T15:58:11.684Z,3.83
2023-04-04T16:00:38.292Z,3.90
2023-04-04T16:03:04.913Z,3.71
2023-04-04T16:05:31.515Z,3.82
2023-04-04T16:07:57.922Z,3.78
2023-04-04T16:10:24.413Z,3.63
2023-04-04T16:12:50.828Z,3.55
2023-04-04T16:15:18.362Z,3.56
2023-04-04T16:17:44.990Z,3.38
2023-04-04T16:20:12.142Z,3.28
2023-04-04T16:22:38.797Z,3.34
2023-04-04T16:25:08.518Z,3.32
2023-04-04T16:27:35.161Z,3.34
2023-04-04T16:30:01.880Z,3.21
2023-04-04T16:32:28.554Z,3.17
2023-04-04T16:34:54.995Z,3.15
2023-04-04T16:37:23.267Z,3.09
2023-04-04T16:39:51.897Z,3.13
2023-04-04T16:42:19.520Z,3.05
2023-04-04T16:44:47.409Z,3.06
2023-04-04T16:47:14.429Z,3.07
2023-04-04T16:49:41.494Z,3.03
2023-04-04T16:52:10.681Z,3.05
2023-04-04T16:54:39.927Z,2.91
2023-04-04T16:57:07.357Z,2.92
2023-04-04T16:59:37.077Z,2.93
2023-04-04T17:02:10.437Z,2.85
2023-04-04T17:04:42.054Z,2.91
2023-04-04T17:07:08.873Z,2.82
2023-04-04T17:09:35.874Z,2.79
2023-04-04T17:12:03.357Z,2.79
2023-04-04T17:14:29.918Z,2.87
2023-04-04T17:17:00.604Z,2.72
2023-04-04T17:19:29.935Z,2.84
2023-04-04T17:21:57.016Z,2.77
2023-04-04T17:24:25.556Z,2.70
2023-04-04T17:26:52.329Z,2.71
2023-04-04T17:29:18.859Z,2.61
2023-04-04T17:34:18.341Z,2.56
2023-04-04T17:36:46.166Z,2.46
2023-04-04T17:39:12.880Z,2.51
2023-04-04T17:41:39.713Z,2.51
2023-04-04T17:44:06.255Z,2.38
2023-04-04T17:46:32.808Z,2.47
2023-04-04T17:48:59.330Z,2.55
2023-04-04T17:51:26.489Z,2.50
2023-04-04T17:53:52.914Z,2.50
2023-04-04T17:56:19.375Z,2.50
2023-04-04T17:58:46.375Z,2.49
2023-04-04T18:01:13.217Z,2.41
2023-04-04T18:03:39.782Z,2.37
2023-04-04T18:06:06.418Z,2.50
2023-04-04T18:08:32.945Z,2.53
2023-04-04T18:10:59.570Z,2.43
2023-04-04T18:13:26.110Z,2.36
2023-04-04T18:15:53.239Z,2.39
2023-04-04T18:18:21.192Z,2.35
2023-04-04T18:20:51.227Z,2.34
2023-04-04T18:23:18.224Z,2.29
2023-04-04T18:25:44.696Z,2.25
2023-04-04T18:28:11.417Z,2.28
2023-04-04T18:30:38.844Z,2.26
2023-04-04T18:33:06.556Z,2.17
2023-04-04T18:35:33.341Z,2.22
2023-04-04T18:38:00.264Z,2.23
2023-04-04T18:40:27.049Z,2.19
2023-04-04T18:42:53.690Z,2.17
2023-04-04T18:45:24.806Z,2.17
2023-04-04T18:47:56.653Z,2.14
2023-04-04T18:50:23.202Z,2.14
2023-04-04T18:52:49.667Z,2.15
2023-04-04T18:55:16.215Z,2.10
2023-04-04T18:57:44.248Z,2.15
2023-04-04T19:00:11.583Z,2.13
2023-04-04T19:02:38.586Z,2.13
2023-04-04T19:05:05.925Z,2.14
2023-04-04T19:07:34.563Z,2.13
2023-04-04T19:10:04.903Z,2.04
2023-04-04T19:12:31.933Z,2.08
2023-04-04T19:14:59.599Z,2.08
2023-04-04T19:17:27.291Z,2.09
2023-04-04T19:19:54.031Z,2.05
2023-04-04T19:22:20.513Z,2.04
2023-04-04T19:24:46.966Z,2.01
2023-04-04T19:27:13.357Z,1.98
2023-04-04T19:29:40.006Z,1.94
2023-04-04T19:32:17.227Z,1.90
2023-04-04T19:34:44.523Z,1.88
2023-04-04T19:37:12.668Z,1.85
2023-04-04T19:39:39.439Z,1.85
2023-04-04T19:42:07.996Z,1.74
2023-04-04T19:44:38.062Z,1.72
2023-04-04T19:47:04.739Z,1.75
2023-04-04T19:49:33.452Z,1.77
2023-04-04T19:52:02.732Z,1.73
2023-04-04T19:54:34.157Z,1.72
2023-04-04T19:57:04.798Z,1.66
2023-04-04T19:59:57.317Z,1.64
2023-04-04T20:02:33.201Z,1.61
2023-04-04T20:05:00.280Z,1.55
2023-04-04T20:07:28.723Z,1.51
2023-04-04T20:09:55.919Z,1.52
2023-04-04T20:12:24.274Z,1.43
2023-04-04T20:14:58.411Z,1.34
2023-04-04T20:17:25.182Z,1.35
2023-04-04T20:19:52.598Z,1.32
2023-04-04T20:22:19.250Z,1.21
2023-04-04T20:24:47.043Z,1.14
2023-04-04T20:27:23.935Z,1.13
2023-04-04T20:29:53.079Z,1.15
2023-04-04T20:32:19.582Z,1.14
2023-04-04T20:34:47.400Z,1.06
2023-04-04T20:37:16.180Z,1.06
2023-04-04T20:39:56.021Z,1.10
2023-04-04T20:42:41.483Z,1.03
2023-04-04T20:45:13.755Z,0.95
2023-04-04T20:47:51.728Z,0.95
2023-04-04T20:50:21.304Z,0.93
2023-04-04T20:52:52.351Z,0.90
2023-04-04T20:55:20.072Z,0.94
2023-04-04T20:57:47.365Z,0.86
2023-04-04T21:00:28.797Z,0.79
2023-04-04T21:03:00.669Z,0.81
2023-04-04T21:05:36.375Z,0.77
2023-04-04T21:08:07.058Z,0.81
2023-04-04T21:10:36.471Z,0.72
2023-04-04T21:13:05.523Z,0.71
2023-04-04T21:15:38.508Z,0.63
2023-04-04T21:18:09.746Z,0.65
2023-04-04T21:20:44.985Z,0.66
2023-04-04T21:23:26.747Z,0.59
2023-04-04T21:26:07.118Z,0.61
2023-04-04T21:28:34.620Z,0.56
2023-04-04T21:31:06.715Z,0.53
2023-04-04T21:33:33.470Z,0.56
2023-04-04T21:36:00.191Z,0.47
2023-04-04T21:38:33.223Z,0.44
2023-04-04T21:41:15.358Z,0.47
2023-04-04T21:43:41.841Z,0.40
2023-04-04T21:46:08.327Z,0.42
2023-04-04T21:48:34.765Z,0.43
2023-04-04T21:51:01.521Z,0.31
2023-04-04T21:53:28.018Z,0.33
2023-04-04T21:55:54.483Z,0.34
2023-04-04T21:58:21.181Z,0.28
2023-04-04T22:00:47.619Z,0.27
2023-04-04T22:03:15.939Z,0.25
2023-04-04T22:05:42.691Z,0.21
2023-04-04T22:08:09.136Z,0.20
2023-04-04T22:10:38.984Z,0.16
2023-04-04T22:13:05.610Z,0.13
2023-04-04T22:15:32.034Z,0.12
2023-04-04T22:18:06.118Z,0.10
2023-04-04T22:20:33.202Z,0.04
2023-04-04T22:22:59.912Z,0.03
2023-04-04T22:25:27.345Z,-0.09
2023-04-04T22:27:53.832Z,-0.05
2023-04-04T22:30:21.672Z,-0.08
2023-04-04T22:32:48.277Z,-0.08
2023-04-04T22:35:14.835Z,-0.07
2023-04-04T22:37:41.455Z,-0.12
2023-04-04T22:40:11.591Z,-0.13
2023-04-04T22:42:38.081Z,-0.13
2023-04-04T22:45:04.938Z,-0.11
2023-04-04T22:47:31.523Z,-0.18
2023-04-04T22:49:58.438Z,-0.16
2023-04-04T22:52:26.541Z,-0.27
2023-04-04T22:54:53.342Z,-0.19
2023-04-04T22:57:19.787Z,-0.29
2023-04-04T22:59:46.230Z,-0.30
2023-04-04T23:02:12.687Z,-0.33
2023-04-04T23:04:39.159Z,-0.38
2023-04-04T23:07:06.407Z,-0.42
2023-04-04T23:09:32.876Z,-0.39
2023-04-04T23:11:59.331Z,-0.44
2023-04-04T23:14:30.631Z,-0.40
2023-04-04T23:16:57.361Z,-0.51
2023-04-04T23:19:23.943Z,-0.58
2023-04-04T23:21:52.576Z,-0.58
2023-04-04T23:24:19.162Z,-0.59
2023-04-04T23:26:45.741Z,-0.66
2023-04-04T23:29:12.137Z,-0.51
2023-04-04T23:31:38.639Z,-0.53
2023-04-04T23:34:05.107Z,-0.57
2023-04-04T23:36:31.782Z,-0.60
2023-04-04T23:38:58.307Z,-0.63
2023-04-04T23:41:24.810Z,-0.65
2023-04-04T23:43:51.323Z,-0.68
2023-04-04T23:46:17.858Z,-0.63
2023-04-04T23:48:44.546Z,-0.61
2023-04-04T23:51:11.104Z,-0.58
2023-04-04T23:53:38.067Z,-0.60
2023-04-04T23:56:04.813Z,-0.61
2023-04-04T23:58:31.310Z,-0.65
